sensor_id;sensor_type;location;lat;lon;timestamp;temperature;humidity
16321;DHT22;8269;50.990;4.494;2023-09-30T00:01:11;12.80;99.90
16321;DHT22;8269;50.990;4.494;2023-09-30T00:03:37;12.80;99.90
16321;DHT22;8269;50.990;4.494;2023-09-30T00:06:03;12.70;99.90
16321;DHT22;8269;50.990;4.494;2023-09-30T00:08:29;12.70;99.90
16321;DHT22;8269;50.990;4.494;2023-09-30T00:10:55;12.70;99.90
16321;DHT22;8269;50.990;4.494;2023-09-30T00:13:21;12.70;99.90
16321;DHT22;8269;50.990;4.494;2023-09-30T00:15:47;12.70;99.90
16321;DHT22;8269;50.990;4.494;2023-09-30T00:18:12;12.70;99.90
16321;DHT22;8269;50.990;4.494;2023-09-30T00:20:39;12.60;99.90
16321;DHT22;8269;50.990;4.494;2023-09-30T00:23:05;12.60;99.90
16321;DHT22;8269;50.990;4.494;2023-09-30T00:25:32;12.50;99.90
16321;DHT22;8269;50.990;4.494;2023-09-30T00:27:57;12.50;99.90
16321;DHT22;8269;50.990;4.494;2023-09-30T00:30:23;12.50;99.90
16321;DHT22;8269;50.990;4.494;2023-09-30T00:32:48;12.40;99.90
16321;DHT22;8269;50.990;4.494;2023-09-30T00:35:14;12.40;99.90
16321;DHT22;8269;50.990;4.494;2023-09-30T00:37:42;12.50;99.90
16321;DHT22;8269;50.990;4.494;2023-09-30T00:40:08;12.50;99.90
16321;DHT22;8269;50.990;4.494;2023-09-30T00:42:38;12.60;99.90
16321;DHT22;8269;50.990;4.494;2023-09-30T00:45:04;12.50;99.90
16321;DHT22;8269;50.990;4.494;2023-09-30T00:47:31;12.50;99.90
16321;DHT22;8269;50.990;4.494;2023-09-30T00:49:57;12.50;99.90
16321;DHT22;8269;50.990;4.494;2023-09-30T00:52:23;12.40;99.90
16321;DHT22;8269;50.990;4.494;2023-09-30T00:54:49;12.40;99.90
16321;DHT22;8269;50.990;4.494;2023-09-30T00:57:17;12.40;99.90
16321;DHT22;8269;50.990;4.494;2023-09-30T00:59:44;12.40;99.90
16321;DHT22;8269;50.990;4.494;2023-09-30T01:02:09;12.30;99.90
16321;DHT22;8269;50.990;4.494;2023-09-30T01:04:36;12.30;99.90
16321;DHT22;8269;50.990;4.494;2023-09-30T01:07:02;12.20;99.90
16321;DHT22;8269;50.990;4.494;2023-09-30T01:09:27;12.20;99.90
16321;DHT22;8269;50.990;4.494;2023-09-30T01:11:53;12.20;99.90
16321;DHT22;8269;50.990;4.494;2023-09-30T01:14:32;12.20;99.90
16321;DHT22;8269;50.990;4.494;2023-09-30T01:17:00;12.30;99.90
16321;DHT22;8269;50.990;4.494;2023-09-30T01:19:25;12.30;99.90
16321;DHT22;8269;50.990;4.494;2023-09-30T01:21:57;12.20;99.90
16321;DHT22;8269;50.990;4.494;2023-09-30T01:24:28;12.20;99.90
16321;DHT22;8269;50.990;4.494;2023-09-30T01:26:54;12.20;99.90
16321;DHT22;8269;50.990;4.494;2023-09-30T01:29:20;12.20;99.90
16321;DHT22;8269;50.990;4.494;2023-09-30T01:31:46;12.20;99.90
16321;DHT22;8269;50.990;4.494;2023-09-30T01:34:15;12.20;99.90
16321;DHT22;8269;50.990;4.494;2023-09-30T01:36:42;12.20;99.90
16321;DHT22;8269;50.990;4.494;2023-09-30T01:39:09;12.10;99.90
16321;DHT22;8269;50.990;4.494;2023-09-30T01:41:36;12.10;99.90
16321;DHT22;8269;50.990;4.494;2023-09-30T01:44:02;12.10;99.90
16321;DHT22;8269;50.990;4.494;2023-09-30T01:46:27;12.00;99.90
16321;DHT22;8269;50.990;4.494;2023-09-30T01:48:53;12.00;99.90
16321;DHT22;8269;50.990;4.494;2023-09-30T01:51:18;12.00;99.90
16321;DHT22;8269;50.990;4.494;2023-09-30T01:53:44;11.90;99.90
16321;DHT22;8269;50.990;4.494;2023-09-30T01:56:10;11.90;99.90
16321;DHT22;8269;50.990;4.494;2023-09-30T01:58:35;11.80;99.90
16321;DHT22;8269;50.990;4.494;2023-09-30T02:01:02;11.80;99.90
16321;DHT22;8269;50.990;4.494;2023-09-30T02:03:28;11.80;99.90
16321;DHT22;8269;50.990;4.494;2023-09-30T02:05:55;11.80;99.90
16321;DHT22;8269;50.990;4.494;2023-09-30T02:08:20;11.80;99.90
16321;DHT22;8269;50.990;4.494;2023-09-30T02:10:46;11.80;99.90
16321;DHT22;8269;50.990;4.494;2023-09-30T02:13:12;11.80;99.90
16321;DHT22;8269;50.990;4.494;2023-09-30T02:15:40;11.80;99.90
16321;DHT22;8269;50.990;4.494;2023-09-30T02:18:06;11.80;99.90
16321;DHT22;8269;50.990;4.494;2023-09-30T02:20:32;11.80;99.90
16321;DHT22;8269;50.990;4.494;2023-09-30T02:22:59;11.70;99.90
16321;DHT22;8269;50.990;4.494;2023-09-30T02:25:27;11.70;99.90
16321;DHT22;8269;50.990;4.494;2023-09-30T02:27:54;11.60;99.90
16321;DHT22;8269;50.990;4.494;2023-09-30T02:30:20;11.60;99.90
16321;DHT22;8269;50.990;4.494;2023-09-30T02:32:46;11.50;99.90
16321;DHT22;8269;50.990;4.494;2023-09-30T02:35:12;11.60;99.90
16321;DHT22;8269;50.990;4.494;2023-09-30T02:37:40;11.50;99.90
16321;DHT22;8269;50.990;4.494;2023-09-30T02:40:07;11.50;99.90
16321;DHT22;8269;50.990;4.494;2023-09-30T02:42:39;11.50;99.90
16321;DHT22;8269;50.990;4.494;2023-09-30T02:45:07;11.50;99.90
16321;DHT22;8269;50.990;4.494;2023-09-30T02:47:36;11.50;99.90
16321;DHT22;8269;50.990;4.494;2023-09-30T02:50:03;11.50;99.90
16321;DHT22;8269;50.990;4.494;2023-09-30T02:52:30;11.50;99.90
16321;DHT22;8269;50.990;4.494;2023-09-30T02:54:57;11.50;99.90
16321;DHT22;8269;50.990;4.494;2023-09-30T02:57:24;11.50;99.90
16321;DHT22;8269;50.990;4.494;2023-09-30T02:59:49;11.60;99.90
16321;DHT22;8269;50.990;4.494;2023-09-30T03:02:17;11.50;99.90
16321;DHT22;8269;50.990;4.494;2023-09-30T03:04:43;11.50;99.90
16321;DHT22;8269;50.990;4.494;2023-09-30T03:07:10;11.60;99.90
16321;DHT22;8269;50.990;4.494;2023-09-30T03:09:35;11.60;99.90
16321;DHT22;8269;50.990;4.494;2023-09-30T03:12:02;11.70;99.90
16321;DHT22;8269;50.990;4.494;2023-09-30T03:14:30;11.70;99.90
16321;DHT22;8269;50.990;4.494;2023-09-30T03:16:57;11.70;99.90
16321;DHT22;8269;50.990;4.494;2023-09-30T03:19:23;11.60;99.90
16321;DHT22;8269;50.990;4.494;2023-09-30T03:21:49;11.70;99.90
16321;DHT22;8269;50.990;4.494;2023-09-30T03:24:15;11.70;99.90
16321;DHT22;8269;50.990;4.494;2023-09-30T03:26:42;11.70;99.90
16321;DHT22;8269;50.990;4.494;2023-09-30T03:29:08;11.60;99.90
16321;DHT22;8269;50.990;4.494;2023-09-30T03:31:36;11.50;99.90
16321;DHT22;8269;50.990;4.494;2023-09-30T03:34:03;11.50;99.90
16321;DHT22;8269;50.990;4.494;2023-09-30T03:36:29;11.50;99.90
16321;DHT22;8269;50.990;4.494;2023-09-30T03:38:55;11.40;99.90
16321;DHT22;8269;50.990;4.494;2023-09-30T03:41:24;11.40;99.90
16321;DHT22;8269;50.990;4.494;2023-09-30T03:43:50;11.40;99.90
16321;DHT22;8269;50.990;4.494;2023-09-30T03:46:16;11.40;99.90
16321;DHT22;8269;50.990;4.494;2023-09-30T03:48:42;11.40;99.90
16321;DHT22;8269;50.990;4.494;2023-09-30T03:51:10;11.40;99.90
16321;DHT22;8269;50.990;4.494;2023-09-30T03:53:42;11.40;99.90
16321;DHT22;8269;50.990;4.494;2023-09-30T03:56:08;11.40;99.90
16321;DHT22;8269;50.990;4.494;2023-09-30T03:58:40;11.40;99.90
16321;DHT22;8269;50.990;4.494;2023-09-30T04:01:07;11.30;99.90
16321;DHT22;8269;50.990;4.494;2023-09-30T04:03:33;11.40;99.90
16321;DHT22;8269;50.990;4.494;2023-09-30T04:06:01;11.30;99.90
16321;DHT22;8269;50.990;4.494;2023-09-30T04:08:28;11.40;99.90
16321;DHT22;8269;50.990;4.494;2023-09-30T04:10:54;11.40;99.90
16321;DHT22;8269;50.990;4.494;2023-09-30T04:13:20;11.30;99.90
16321;DHT22;8269;50.990;4.494;2023-09-30T04:15:47;11.30;99.90
16321;DHT22;8269;50.990;4.494;2023-09-30T04:18:14;11.30;99.90
16321;DHT22;8269;50.990;4.494;2023-09-30T04:20:40;11.20;99.90
16321;DHT22;8269;50.990;4.494;2023-09-30T04:23:07;11.20;99.90
16321;DHT22;8269;50.990;4.494;2023-09-30T04:25:35;11.20;99.90
16321;DHT22;8269;50.990;4.494;2023-09-30T04:28:01;11.20;99.90
16321;DHT22;8269;50.990;4.494;2023-09-30T04:30:28;11.30;99.90
16321;DHT22;8269;50.990;4.494;2023-09-30T04:32:54;11.20;99.90
16321;DHT22;8269;50.990;4.494;2023-09-30T04:35:20;11.20;99.90
16321;DHT22;8269;50.990;4.494;2023-09-30T04:37:47;11.10;99.90
16321;DHT22;8269;50.990;4.494;2023-09-30T04:40:12;11.10;99.90
16321;DHT22;8269;50.990;4.494;2023-09-30T04:42:42;11.10;99.90
16321;DHT22;8269;50.990;4.494;2023-09-30T04:45:10;11.10;99.90
16321;DHT22;8269;50.990;4.494;2023-09-30T04:47:36;11.10;99.90
16321;DHT22;8269;50.990;4.494;2023-09-30T04:50:05;11.10;99.90
16321;DHT22;8269;50.990;4.494;2023-09-30T04:52:33;11.10;99.90
16321;DHT22;8269;50.990;4.494;2023-09-30T04:54:58;11.20;99.90
16321;DHT22;8269;50.990;4.494;2023-09-30T04:57:26;11.20;99.90
16321;DHT22;8269;50.990;4.494;2023-09-30T04:59:51;11.20;99.90
16321;DHT22;8269;50.990;4.494;2023-09-30T05:02:17;11.30;99.90
16321;DHT22;8269;50.990;4.494;2023-09-30T05:04:42;11.30;99.90
16321;DHT22;8269;50.990;4.494;2023-09-30T05:07:08;11.30;99.90
16321;DHT22;8269;50.990;4.494;2023-09-30T05:09:34;11.30;99.90
16321;DHT22;8269;50.990;4.494;2023-09-30T05:12:00;11.40;99.90
16321;DHT22;8269;50.990;4.494;2023-09-30T05:14:25;11.40;99.90
16321;DHT22;8269;50.990;4.494;2023-09-30T05:16:54;11.40;99.90
16321;DHT22;8269;50.990;4.494;2023-09-30T05:19:20;11.40;99.90
16321;DHT22;8269;50.990;4.494;2023-09-30T05:21:46;11.30;99.90
16321;DHT22;8269;50.990;4.494;2023-09-30T05:24:12;11.30;99.90
16321;DHT22;8269;50.990;4.494;2023-09-30T05:26:38;11.30;99.90
16321;DHT22;8269;50.990;4.494;2023-09-30T05:29:04;11.40;99.90
16321;DHT22;8269;50.990;4.494;2023-09-30T05:31:30;11.40;99.90
16321;DHT22;8269;50.990;4.494;2023-09-30T05:33:56;11.40;99.90
16321;DHT22;8269;50.990;4.494;2023-09-30T05:36:22;11.40;99.90
16321;DHT22;8269;50.990;4.494;2023-09-30T05:38:47;11.40;99.90
16321;DHT22;8269;50.990;4.494;2023-09-30T05:41:16;11.30;99.90
16321;DHT22;8269;50.990;4.494;2023-09-30T05:43:42;11.30;99.90
16321;DHT22;8269;50.990;4.494;2023-09-30T05:46:09;11.20;99.90
16321;DHT22;8269;50.990;4.494;2023-09-30T05:48:34;11.20;99.90
16321;DHT22;8269;50.990;4.494;2023-09-30T05:51:02;11.20;99.90
16321;DHT22;8269;50.990;4.494;2023-09-30T05:53:32;11.20;99.90
16321;DHT22;8269;50.990;4.494;2023-09-30T05:56:01;11.20;99.90
16321;DHT22;8269;50.990;4.494;2023-09-30T05:58:27;11.30;99.90
16321;DHT22;8269;50.990;4.494;2023-09-30T06:00:52;11.30;99.90
16321;DHT22;8269;50.990;4.494;2023-09-30T06:03:19;11.30;99.90
16321;DHT22;8269;50.990;4.494;2023-09-30T06:05:47;11.30;99.90
16321;DHT22;8269;50.990;4.494;2023-09-30T06:08:14;11.20;99.90
16321;DHT22;8269;50.990;4.494;2023-09-30T06:10:41;11.20;99.90
16321;DHT22;8269;50.990;4.494;2023-09-30T06:13:13;11.20;99.90
16321;DHT22;8269;50.990;4.494;2023-09-30T06:15:42;11.20;99.90
16321;DHT22;8269;50.990;4.494;2023-09-30T06:18:09;11.20;99.90
16321;DHT22;8269;50.990;4.494;2023-09-30T06:20:37;11.30;99.90
16321;DHT22;8269;50.990;4.494;2023-09-30T06:23:03;11.40;99.90
16321;DHT22;8269;50.990;4.494;2023-09-30T06:25:29;11.50;99.90
16321;DHT22;8269;50.990;4.494;2023-09-30T06:27:56;11.50;99.90
16321;DHT22;8269;50.990;4.494;2023-09-30T06:30:22;11.50;99.90
16321;DHT22;8269;50.990;4.494;2023-09-30T06:32:55;11.60;99.90
16321;DHT22;8269;50.990;4.494;2023-09-30T06:35:21;11.60;99.90
16321;DHT22;8269;50.990;4.494;2023-09-30T06:37:48;11.80;99.90
16321;DHT22;8269;50.990;4.494;2023-09-30T06:40:14;11.90;99.90
16321;DHT22;8269;50.990;4.494;2023-09-30T06:42:40;12.00;99.90
16321;DHT22;8269;50.990;4.494;2023-09-30T06:45:07;12.20;99.90
16321;DHT22;8269;50.990;4.494;2023-09-30T06:47:33;12.40;99.90
16321;DHT22;8269;50.990;4.494;2023-09-30T06:50:04;12.40;99.90
16321;DHT22;8269;50.990;4.494;2023-09-30T06:52:34;12.50;99.90
16321;DHT22;8269;50.990;4.494;2023-09-30T06:55:01;12.40;99.90
16321;DHT22;8269;50.990;4.494;2023-09-30T06:57:27;12.50;99.90
16321;DHT22;8269;50.990;4.494;2023-09-30T06:59:52;12.50;99.90
16321;DHT22;8269;50.990;4.494;2023-09-30T07:02:18;12.50;99.90
16321;DHT22;8269;50.990;4.494;2023-09-30T07:04:44;12.60;99.90
16321;DHT22;8269;50.990;4.494;2023-09-30T07:07:09;12.70;99.90
16321;DHT22;8269;50.990;4.494;2023-09-30T07:09:35;12.70;99.90
16321;DHT22;8269;50.990;4.494;2023-09-30T07:12:01;12.80;99.90
16321;DHT22;8269;50.990;4.494;2023-09-30T07:14:27;12.90;99.90
16321;DHT22;8269;50.990;4.494;2023-09-30T07:16:53;13.00;99.90
16321;DHT22;8269;50.990;4.494;2023-09-30T07:19:19;13.20;99.90
16321;DHT22;8269;50.990;4.494;2023-09-30T07:21:45;13.30;99.90
16321;DHT22;8269;50.990;4.494;2023-09-30T07:24:12;13.50;99.90
16321;DHT22;8269;50.990;4.494;2023-09-30T07:26:37;13.60;99.90
16321;DHT22;8269;50.990;4.494;2023-09-30T07:29:03;13.60;99.90
16321;DHT22;8269;50.990;4.494;2023-09-30T07:31:34;13.80;99.90
16321;DHT22;8269;50.990;4.494;2023-09-30T07:34:00;14.00;99.90
16321;DHT22;8269;50.990;4.494;2023-09-30T07:36:26;14.20;99.90
16321;DHT22;8269;50.990;4.494;2023-09-30T07:38:52;14.50;99.90
16321;DHT22;8269;50.990;4.494;2023-09-30T07:41:18;15.00;99.90
16321;DHT22;8269;50.990;4.494;2023-09-30T07:43:44;15.20;99.90
16321;DHT22;8269;50.990;4.494;2023-09-30T07:46:09;15.50;99.90
16321;DHT22;8269;50.990;4.494;2023-09-30T07:48:35;15.70;99.90
16321;DHT22;8269;50.990;4.494;2023-09-30T07:51:01;16.10;99.90
16321;DHT22;8269;50.990;4.494;2023-09-30T07:53:27;16.20;99.90
16321;DHT22;8269;50.990;4.494;2023-09-30T07:55:53;16.50;99.90
16321;DHT22;8269;50.990;4.494;2023-09-30T07:58:20;16.60;99.90
16321;DHT22;8269;50.990;4.494;2023-09-30T08:00:46;16.60;99.90
16321;DHT22;8269;50.990;4.494;2023-09-30T08:03:11;16.60;99.90
16321;DHT22;8269;50.990;4.494;2023-09-30T08:05:38;16.80;99.90
16321;DHT22;8269;50.990;4.494;2023-09-30T08:08:04;16.90;99.90
16321;DHT22;8269;50.990;4.494;2023-09-30T08:10:31;17.10;99.90
16321;DHT22;8269;50.990;4.494;2023-09-30T08:12:57;17.20;99.90
16321;DHT22;8269;50.990;4.494;2023-09-30T08:15:24;17.40;99.90
16321;DHT22;8269;50.990;4.494;2023-09-30T08:17:50;17.60;99.90
16321;DHT22;8269;50.990;4.494;2023-09-30T08:20:16;17.80;99.90
16321;DHT22;8269;50.990;4.494;2023-09-30T08:22:42;17.90;99.90
16321;DHT22;8269;50.990;4.494;2023-09-30T08:25:08;17.80;99.90
16321;DHT22;8269;50.990;4.494;2023-09-30T08:27:34;17.70;99.90
16321;DHT22;8269;50.990;4.494;2023-09-30T08:30:00;17.60;99.90
16321;DHT22;8269;50.990;4.494;2023-09-30T08:32:26;17.40;99.90
16321;DHT22;8269;50.990;4.494;2023-09-30T08:34:52;17.40;99.90
16321;DHT22;8269;50.990;4.494;2023-09-30T08:37:17;17.40;99.90
16321;DHT22;8269;50.990;4.494;2023-09-30T08:39:43;17.60;99.90
16321;DHT22;8269;50.990;4.494;2023-09-30T08:42:10;17.80;99.90
16321;DHT22;8269;50.990;4.494;2023-09-30T08:44:39;17.70;99.90
16321;DHT22;8269;50.990;4.494;2023-09-30T08:47:08;17.80;99.90
16321;DHT22;8269;50.990;4.494;2023-09-30T08:49:37;18.00;99.90
16321;DHT22;8269;50.990;4.494;2023-09-30T08:52:05;17.90;99.90
16321;DHT22;8269;50.990;4.494;2023-09-30T08:54:31;18.00;99.90
16321;DHT22;8269;50.990;4.494;2023-09-30T08:56:58;18.10;99.90
16321;DHT22;8269;50.990;4.494;2023-09-30T08:59:25;18.00;99.90
16321;DHT22;8269;50.990;4.494;2023-09-30T09:01:52;17.80;99.90
16321;DHT22;8269;50.990;4.494;2023-09-30T09:04:18;17.70;99.90
16321;DHT22;8269;50.990;4.494;2023-09-30T09:06:43;17.60;99.90
16321;DHT22;8269;50.990;4.494;2023-09-30T09:09:14;17.60;99.90
16321;DHT22;8269;50.990;4.494;2023-09-30T09:11:40;17.60;99.90
16321;DHT22;8269;50.990;4.494;2023-09-30T09:14:06;17.60;99.90
16321;DHT22;8269;50.990;4.494;2023-09-30T09:16:32;17.60;99.90
16321;DHT22;8269;50.990;4.494;2023-09-30T09:18:58;17.60;99.90
16321;DHT22;8269;50.990;4.494;2023-09-30T09:21:23;17.60;99.90
16321;DHT22;8269;50.990;4.494;2023-09-30T09:23:53;17.60;99.90
16321;DHT22;8269;50.990;4.494;2023-09-30T09:26:29;17.70;99.90
16321;DHT22;8269;50.990;4.494;2023-09-30T09:29:03;17.70;99.90
16321;DHT22;8269;50.990;4.494;2023-09-30T09:31:34;17.70;99.90
16321;DHT22;8269;50.990;4.494;2023-09-30T09:34:12;17.80;99.90
16321;DHT22;8269;50.990;4.494;2023-09-30T09:36:40;17.80;99.90
16321;DHT22;8269;50.990;4.494;2023-09-30T09:39:07;17.90;99.90
16321;DHT22;8269;50.990;4.494;2023-09-30T09:41:32;18.00;99.90
16321;DHT22;8269;50.990;4.494;2023-09-30T09:43:59;18.00;99.90
16321;DHT22;8269;50.990;4.494;2023-09-30T09:46:26;17.90;99.90
16321;DHT22;8269;50.990;4.494;2023-09-30T09:48:53;17.90;99.90
16321;DHT22;8269;50.990;4.494;2023-09-30T09:51:20;18.00;99.90
16321;DHT22;8269;50.990;4.494;2023-09-30T09:53:48;18.00;99.90
16321;DHT22;8269;50.990;4.494;2023-09-30T09:56:15;18.10;99.90
16321;DHT22;8269;50.990;4.494;2023-09-30T09:58:43;18.20;99.90
16321;DHT22;8269;50.990;4.494;2023-09-30T10:01:10;18.20;99.90
16321;DHT22;8269;50.990;4.494;2023-09-30T10:03:37;18.30;99.90
16321;DHT22;8269;50.990;4.494;2023-09-30T10:06:03;18.40;99.90
16321;DHT22;8269;50.990;4.494;2023-09-30T10:08:39;18.40;99.90
16321;DHT22;8269;50.990;4.494;2023-09-30T10:11:06;18.50;99.90
16321;DHT22;8269;50.990;4.494;2023-09-30T10:13:57;18.40;99.90
16321;DHT22;8269;50.990;4.494;2023-09-30T10:19:22;18.30;99.90
16321;DHT22;8269;50.990;4.494;2023-09-30T10:24:46;18.40;99.90
16321;DHT22;8269;50.990;4.494;2023-09-30T10:27:27;18.30;99.90
16321;DHT22;8269;50.990;4.494;2023-09-30T10:35:20;18.30;99.90
16321;DHT22;8269;50.990;4.494;2023-09-30T10:37:47;18.40;99.90
16321;DHT22;8269;50.990;4.494;2023-09-30T10:40:29;18.50;99.90
16321;DHT22;8269;50.990;4.494;2023-09-30T10:42:56;18.50;99.90
16321;DHT22;8269;50.990;4.494;2023-09-30T10:45:45;18.60;99.90
16321;DHT22;8269;50.990;4.494;2023-09-30T10:51:13;18.80;99.90
16321;DHT22;8269;50.990;4.494;2023-09-30T10:53:47;19.00;99.90
16321;DHT22;8269;50.990;4.494;2023-09-30T10:56:14;19.00;99.90
16321;DHT22;8269;50.990;4.494;2023-09-30T11:01:11;19.20;99.90
16321;DHT22;8269;50.990;4.494;2023-09-30T11:03:38;19.40;99.90
16321;DHT22;8269;50.990;4.494;2023-09-30T11:06:03;19.50;99.90
16321;DHT22;8269;50.990;4.494;2023-09-30T11:08:29;19.60;99.90
16321;DHT22;8269;50.990;4.494;2023-09-30T11:10:56;19.70;99.90
16321;DHT22;8269;50.990;4.494;2023-09-30T11:13:22;19.70;99.90
16321;DHT22;8269;50.990;4.494;2023-09-30T11:15:48;19.70;99.90
16321;DHT22;8269;50.990;4.494;2023-09-30T11:18:24;19.80;99.90
16321;DHT22;8269;50.990;4.494;2023-09-30T11:20:50;19.80;99.90
16321;DHT22;8269;50.990;4.494;2023-09-30T11:23:28;19.70;99.90
16321;DHT22;8269;50.990;4.494;2023-09-30T11:25:54;19.60;99.90
16321;DHT22;8269;50.990;4.494;2023-09-30T11:28:20;19.60;99.90
16321;DHT22;8269;50.990;4.494;2023-09-30T11:30:58;19.80;99.90
16321;DHT22;8269;50.990;4.494;2023-09-30T11:33:24;19.90;99.90
16321;DHT22;8269;50.990;4.494;2023-09-30T11:36:05;20.00;99.90
16321;DHT22;8269;50.990;4.494;2023-09-30T11:38:32;20.10;99.90
16321;DHT22;8269;50.990;4.494;2023-09-30T11:41:03;20.20;99.90
16321;DHT22;8269;50.990;4.494;2023-09-30T11:43:31;20.10;99.90
16321;DHT22;8269;50.990;4.494;2023-09-30T11:46:06;20.00;99.90
16321;DHT22;8269;50.990;4.494;2023-09-30T11:48:37;20.00;99.90
16321;DHT22;8269;50.990;4.494;2023-09-30T11:51:04;20.00;99.90
16321;DHT22;8269;50.990;4.494;2023-09-30T11:53:35;20.10;99.90
16321;DHT22;8269;50.990;4.494;2023-09-30T11:56:03;20.10;99.90
16321;DHT22;8269;50.990;4.494;2023-09-30T11:58:29;20.10;99.90
16321;DHT22;8269;50.990;4.494;2023-09-30T12:01:00;20.00;99.90
16321;DHT22;8269;50.990;4.494;2023-09-30T12:03:26;19.90;99.90
16321;DHT22;8269;50.990;4.494;2023-09-30T12:05:55;19.90;99.90
16321;DHT22;8269;50.990;4.494;2023-09-30T12:08:22;20.10;99.90
16321;DHT22;8269;50.990;4.494;2023-09-30T12:10:48;20.10;99.90
16321;DHT22;8269;50.990;4.494;2023-09-30T12:13:14;20.00;99.90
16321;DHT22;8269;50.990;4.494;2023-09-30T12:15:41;19.90;99.90
16321;DHT22;8269;50.990;4.494;2023-09-30T12:18:06;19.90;99.90
16321;DHT22;8269;50.990;4.494;2023-09-30T12:20:32;19.80;99.90
16321;DHT22;8269;50.990;4.494;2023-09-30T12:22:58;19.80;99.90
16321;DHT22;8269;50.990;4.494;2023-09-30T12:25:24;19.90;99.90
16321;DHT22;8269;50.990;4.494;2023-09-30T12:27:50;19.90;99.90
16321;DHT22;8269;50.990;4.494;2023-09-30T12:30:16;20.00;99.90
16321;DHT22;8269;50.990;4.494;2023-09-30T12:32:45;19.90;99.90
16321;DHT22;8269;50.990;4.494;2023-09-30T12:35:11;20.00;99.90
16321;DHT22;8269;50.990;4.494;2023-09-30T12:37:37;20.10;99.90
16321;DHT22;8269;50.990;4.494;2023-09-30T12:40:05;20.10;99.90
16321;DHT22;8269;50.990;4.494;2023-09-30T12:42:32;20.20;99.90
16321;DHT22;8269;50.990;4.494;2023-09-30T12:45:00;20.20;99.90
16321;DHT22;8269;50.990;4.494;2023-09-30T12:47:26;20.10;99.90
16321;DHT22;8269;50.990;4.494;2023-09-30T12:49:52;20.10;99.90
16321;DHT22;8269;50.990;4.494;2023-09-30T12:52:20;20.30;99.90
16321;DHT22;8269;50.990;4.494;2023-09-30T12:54:46;20.50;99.90
16321;DHT22;8269;50.990;4.494;2023-09-30T12:57:14;20.60;99.90
16321;DHT22;8269;50.990;4.494;2023-09-30T12:59:43;20.60;99.90
16321;DHT22;8269;50.990;4.494;2023-09-30T13:02:11;20.50;99.90
16321;DHT22;8269;50.990;4.494;2023-09-30T13:04:37;20.50;99.90
16321;DHT22;8269;50.990;4.494;2023-09-30T13:07:11;20.60;99.90
16321;DHT22;8269;50.990;4.494;2023-09-30T13:09:38;20.60;99.90
16321;DHT22;8269;50.990;4.494;2023-09-30T13:12:04;20.70;99.90
16321;DHT22;8269;50.990;4.494;2023-09-30T13:14:30;20.70;99.90
16321;DHT22;8269;50.990;4.494;2023-09-30T13:16:56;20.80;99.90
16321;DHT22;8269;50.990;4.494;2023-09-30T13:19:22;20.90;99.90
16321;DHT22;8269;50.990;4.494;2023-09-30T13:21:50;20.80;99.90
16321;DHT22;8269;50.990;4.494;2023-09-30T13:24:16;20.80;99.90
16321;DHT22;8269;50.990;4.494;2023-09-30T13:26:42;20.70;99.90
16321;DHT22;8269;50.990;4.494;2023-09-30T13:29:07;20.70;99.90
16321;DHT22;8269;50.990;4.494;2023-09-30T13:31:35;20.80;99.90
16321;DHT22;8269;50.990;4.494;2023-09-30T13:34:05;20.90;99.90
16321;DHT22;8269;50.990;4.494;2023-09-30T13:36:31;21.10;99.90
16321;DHT22;8269;50.990;4.494;2023-09-30T13:38:57;21.20;99.90
16321;DHT22;8269;50.990;4.494;2023-09-30T13:41:22;21.30;99.90
16321;DHT22;8269;50.990;4.494;2023-09-30T13:43:48;21.40;99.90
16321;DHT22;8269;50.990;4.494;2023-09-30T13:46:14;21.40;99.90
16321;DHT22;8269;50.990;4.494;2023-09-30T13:48:41;21.30;99.90
16321;DHT22;8269;50.990;4.494;2023-09-30T13:51:07;21.30;99.90
16321;DHT22;8269;50.990;4.494;2023-09-30T13:53:34;21.20;99.90
16321;DHT22;8269;50.990;4.494;2023-09-30T13:56:00;21.10;99.90
16321;DHT22;8269;50.990;4.494;2023-09-30T13:58:25;21.10;99.90
16321;DHT22;8269;50.990;4.494;2023-09-30T14:00:51;20.90;99.90
16321;DHT22;8269;50.990;4.494;2023-09-30T14:03:22;20.80;99.90
16321;DHT22;8269;50.990;4.494;2023-09-30T14:05:50;20.80;99.90
16321;DHT22;8269;50.990;4.494;2023-09-30T14:08:15;20.90;99.90
16321;DHT22;8269;50.990;4.494;2023-09-30T14:10:42;20.80;99.90
16321;DHT22;8269;50.990;4.494;2023-09-30T14:13:10;20.90;99.90
16321;DHT22;8269;50.990;4.494;2023-09-30T14:15:36;21.00;99.90
16321;DHT22;8269;50.990;4.494;2023-09-30T14:18:02;21.10;99.90
16321;DHT22;8269;50.990;4.494;2023-09-30T14:20:28;21.10;99.90
16321;DHT22;8269;50.990;4.494;2023-09-30T14:22:54;21.00;99.90
16321;DHT22;8269;50.990;4.494;2023-09-30T14:25:23;20.90;99.90
16321;DHT22;8269;50.990;4.494;2023-09-30T14:27:49;21.00;99.90
16321;DHT22;8269;50.990;4.494;2023-09-30T14:30:15;20.90;99.90
16321;DHT22;8269;50.990;4.494;2023-09-30T14:32:41;20.70;99.90
16321;DHT22;8269;50.990;4.494;2023-09-30T14:35:08;20.60;99.90
16321;DHT22;8269;50.990;4.494;2023-09-30T14:37:35;20.50;99.90
16321;DHT22;8269;50.990;4.494;2023-09-30T14:40:01;20.60;99.90
16321;DHT22;8269;50.990;4.494;2023-09-30T14:42:31;20.50;99.90
16321;DHT22;8269;50.990;4.494;2023-09-30T14:44:57;20.60;99.90
16321;DHT22;8269;50.990;4.494;2023-09-30T14:47:23;20.50;99.90
16321;DHT22;8269;50.990;4.494;2023-09-30T14:49:48;20.40;99.90
16321;DHT22;8269;50.990;4.494;2023-09-30T14:52:14;20.40;99.90
16321;DHT22;8269;50.990;4.494;2023-09-30T14:54:41;20.40;99.90
16321;DHT22;8269;50.990;4.494;2023-09-30T14:57:06;20.20;99.90
16321;DHT22;8269;50.990;4.494;2023-09-30T14:59:33;20.20;99.90
16321;DHT22;8269;50.990;4.494;2023-09-30T15:01:59;20.30;99.90
16321;DHT22;8269;50.990;4.494;2023-09-30T15:04:25;20.30;99.90
16321;DHT22;8269;50.990;4.494;2023-09-30T15:06:51;20.30;99.90
16321;DHT22;8269;50.990;4.494;2023-09-30T15:09:17;20.30;99.90
16321;DHT22;8269;50.990;4.494;2023-09-30T15:11:43;20.20;99.90
16321;DHT22;8269;50.990;4.494;2023-09-30T15:14:09;20.10;99.90
16321;DHT22;8269;50.990;4.494;2023-09-30T15:16:35;20.00;99.90
16321;DHT22;8269;50.990;4.494;2023-09-30T15:19:00;20.00;99.90
16321;DHT22;8269;50.990;4.494;2023-09-30T15:21:26;20.10;99.90
16321;DHT22;8269;50.990;4.494;2023-09-30T15:23:52;20.10;99.90
16321;DHT22;8269;50.990;4.494;2023-09-30T15:26:18;20.10;99.90
16321;DHT22;8269;50.990;4.494;2023-09-30T15:28:44;20.00;99.90
16321;DHT22;8269;50.990;4.494;2023-09-30T15:31:13;20.00;99.90
16321;DHT22;8269;50.990;4.494;2023-09-30T15:33:38;20.00;99.90
16321;DHT22;8269;50.990;4.494;2023-09-30T15:36:14;20.00;99.90
16321;DHT22;8269;50.990;4.494;2023-09-30T15:38:39;19.90;99.90
16321;DHT22;8269;50.990;4.494;2023-09-30T15:41:06;19.80;99.90
16321;DHT22;8269;50.990;4.494;2023-09-30T15:43:32;19.90;99.90
16321;DHT22;8269;50.990;4.494;2023-09-30T15:46:01;19.80;99.90
16321;DHT22;8269;50.990;4.494;2023-09-30T15:48:27;19.80;99.90
16321;DHT22;8269;50.990;4.494;2023-09-30T15:50:53;19.80;99.90
16321;DHT22;8269;50.990;4.494;2023-09-30T15:53:19;19.80;99.90
16321;DHT22;8269;50.990;4.494;2023-09-30T15:55:44;19.80;99.90
16321;DHT22;8269;50.990;4.494;2023-09-30T15:58:10;19.70;99.90
16321;DHT22;8269;50.990;4.494;2023-09-30T16:00:39;19.60;99.90